sensor_id;sensor_type;location;lat;lon;timestamp;pressure;altitude;pressure_sealevel;temperature;humidity
77279;BME280;66332;50.436;15.378;2023-03-01T05:04:49;99356.25;;;-3.08;72.54
77279;BME280;66332;50.436;15.378;2023-03-01T05:09:30;99351.75;;;-3.24;73.05
77279;BME280;66332;50.436;15.378;2023-03-01T05:14:11;99340.44;;;-3.40;73.47
77279;BME280;66332;50.436;15.378;2023-03-01T05:18:52;99355.03;;;-3.40;74.31
77279;BME280;66332;50.436;15.378;2023-03-01T05:23:33;99351.75;;;-3.24;73.53
77279;BME280;66332;50.436;15.378;2023-03-01T05:28:15;99352.44;;;-3.20;73.69
77279;BME280;66332;50.436;15.378;2023-03-01T05:32:55;99354.44;;;-3.27;73.78
77279;BME280;66332;50.436;15.378;2023-03-01T05:37:37;99309.72;;;-3.63;73.00
77279;BME280;66332;50.436;15.378;2023-03-01T05:42:18;99330.69;;;-3.52;72.89
77279;BME280;66332;50.436;15.378;2023-03-01T05:46:59;99314.06;;;-3.65;72.73
77279;BME280;66332;50.436;15.378;2023-03-01T05:51:41;99350.91;;;-3.44;72.05
77279;BME280;66332;50.436;15.378;2023-03-01T05:56:22;99365.47;;;-3.43;73.60
77279;BME280;66332;50.436;15.378;2023-03-01T06:01:03;99375.41;;;-3.36;72.31
77279;BME280;66332;50.436;15.378;2023-03-01T06:05:45;99374.63;;;-3.38;72.83
77279;BME280;66332;50.436;15.378;2023-03-01T06:10:26;99377.06;;;-3.35;72.07
77279;BME280;66332;50.436;15.378;2023-03-01T06:15:07;99355.22;;;-3.45;73.83
77279;BME280;66332;50.436;15.378;2023-03-01T06:19:50;99350.91;;;-3.04;73.49
77279;BME280;66332;50.436;15.378;2023-03-01T06:24:31;99352.56;;;-2.63;71.17
77279;BME280;66332;50.436;15.378;2023-03-01T06:29:14;99380.56;;;-2.37;71.26
77279;BME280;66332;50.436;15.378;2023-03-01T06:33:55;99379.72;;;-2.37;70.93
77279;BME280;66332;50.436;15.378;2023-03-01T06:38:36;99375.94;;;-2.11;70.47
77279;BME280;66332;50.436;15.378;2023-03-01T06:43:18;99331.66;;;-2.00;70.14
77279;BME280;66332;50.436;15.378;2023-03-01T06:48:05;99369.88;;;-1.74;69.94
77279;BME280;66332;50.436;15.378;2023-03-01T06:52:46;99367.69;;;-1.47;69.47
77279;BME280;66332;50.436;15.378;2023-03-01T06:57:29;99331.94;;;-1.20;67.86
77279;BME280;66332;50.436;15.378;2023-03-01T07:02:11;99373.88;;;-0.48;65.48
77279;BME280;66332;50.436;15.378;2023-03-01T07:06:52;99379.69;;;-0.44;66.02
77279;BME280;66332;50.436;15.378;2023-03-01T07:11:36;99377.53;;;-0.05;64.66
77279;BME280;66332;50.436;15.378;2023-03-01T07:16:17;99370.63;;;0.42;64.98
77279;BME280;66332;50.436;15.378;2023-03-01T07:20:58;99366.44;;;0.85;63.95
77279;BME280;66332;50.436;15.378;2023-03-01T07:25:39;99357.28;;;1.08;61.92
77279;BME280;66332;50.436;15.378;2023-03-01T07:30:21;99357.94;;;1.26;61.43
77279;BME280;66332;50.436;15.378;2023-03-01T07:35:02;99341.31;;;1.72;60.67
77279;BME280;66332;50.436;15.378;2023-03-01T07:39:43;99339.38;;;2.02;59.11
77279;BME280;66332;50.436;15.378;2023-03-01T07:44:24;99322.81;;;2.05;57.99
77279;BME280;66332;50.436;15.378;2023-03-01T07:49:05;99324.34;;;2.35;57.48
77279;BME280;66332;50.436;15.378;2023-03-01T07:53:47;99349.00;;;2.67;55.98
77279;BME280;66332;50.436;15.378;2023-03-01T07:58:28;99298.56;;;2.71;55.20
77279;BME280;66332;50.436;15.378;2023-03-01T08:03:12;99353.28;;;2.81;56.87
77279;BME280;66332;50.436;15.378;2023-03-01T08:07:54;99332.81;;;2.76;55.15
77279;BME280;66332;50.436;15.378;2023-03-01T08:12:35;99332.28;;;3.22;54.26
77279;BME280;66332;50.436;15.378;2023-03-01T08:17:16;99334.28;;;3.32;54.54
77279;BME280;66332;50.436;15.378;2023-03-01T08:21:57;99325.97;;;3.27;52.65
77279;BME280;66332;50.436;15.378;2023-03-01T08:26:41;99323.81;;;3.57;53.11
77279;BME280;66332;50.436;15.378;2023-03-01T08:31:32;99312.34;;;3.73;51.92
77279;BME280;66332;50.436;15.378;2023-03-01T08:36:13;99297.19;;;4.14;49.44
77279;BME280;66332;50.436;15.378;2023-03-01T08:40:59;99279.63;;;3.81;52.25
77279;BME280;66332;50.436;15.378;2023-03-01T08:45:40;99306.47;;;4.30;49.84
77279;BME280;66332;50.436;15.378;2023-03-01T08:50:21;99292.59;;;4.65;48.48
77279;BME280;66332;50.436;15.378;2023-03-01T08:55:05;99275.28;;;4.52;48.78
77279;BME280;66332;50.436;15.378;2023-03-01T08:59:49;99299.91;;;4.48;48.05
77279;BME280;66332;50.436;15.378;2023-03-01T09:04:31;99298.81;;;4.97;46.37
77279;BME280;66332;50.436;15.378;2023-03-01T09:09:14;99273.31;;;4.90;47.06
77279;BME280;66332;50.436;15.378;2023-03-01T09:13:56;99283.91;;;5.77;42.19
77279;BME280;66332;50.436;15.378;2023-03-01T09:18:38;99287.19;;;5.24;44.20
77279;BME280;66332;50.436;15.378;2023-03-01T09:23:19;99292.31;;;6.03;45.60
77279;BME280;66332;50.436;15.378;2023-03-01T09:28:00;99249.44;;;6.05;43.39
77279;BME280;66332;50.436;15.378;2023-03-01T09:32:41;99262.13;;;6.10;45.38
77279;BME280;66332;50.436;15.378;2023-03-01T09:37:23;99258.78;;;5.75;42.87
77279;BME280;66332;50.436;15.378;2023-03-01T09:42:12;99256.81;;;5.89;42.55
77279;BME280;66332;50.436;15.378;2023-03-01T09:46:53;99247.63;;;6.38;41.62
77279;BME280;66332;50.436;15.378;2023-03-01T09:51:35;99241.13;;;5.68;42.03
77279;BME280;66332;50.436;15.378;2023-03-01T09:56:22;99264.03;;;6.92;40.79
77279;BME280;66332;50.436;15.378;2023-03-01T10:10:46;99237.66;;;6.74;40.61
77279;BME280;66332;50.436;15.378;2023-03-01T10:15:35;99272.84;;;6.28;41.64
77279;BME280;66332;50.436;15.378;2023-03-01T10:20:26;99259.34;;;7.26;39.43
77279;BME280;66332;50.436;15.378;2023-03-01T10:25:11;99268.72;;;6.98;40.09
77279;BME280;66332;50.436;15.378;2023-03-01T10:34:35;99255.41;;;7.51;40.68
77279;BME280;66332;50.436;15.378;2023-03-01T10:39:19;99216.56;;;7.46;39.40
77279;BME280;66332;50.436;15.378;2023-03-01T10:44:00;99212.06;;;7.68;40.12
77279;BME280;66332;50.436;15.378;2023-03-01T10:48:41;99246.72;;;7.50;39.85
77279;BME280;66332;50.436;15.378;2023-03-01T10:53:40;99229.16;;;6.81;41.94
77279;BME280;66332;50.436;15.378;2023-03-01T10:58:21;99217.44;;;7.06;41.77
77279;BME280;66332;50.436;15.378;2023-03-01T11:03:09;99222.00;;;5.79;44.72
77279;BME280;66332;50.436;15.378;2023-03-01T11:07:52;99222.09;;;5.77;44.39
77279;BME280;66332;50.436;15.378;2023-03-01T11:12:37;99206.16;;;6.75;41.97
77279;BME280;66332;50.436;15.378;2023-03-01T11:17:28;99166.59;;;7.69;40.39
77279;BME280;66332;50.436;15.378;2023-03-01T11:22:18;99202.22;;;7.41;40.06
77279;BME280;66332;50.436;15.378;2023-03-01T11:27:31;99175.00;;;6.62;41.06
77279;BME280;66332;50.436;15.378;2023-03-01T11:32:13;99190.03;;;7.70;39.03
77279;BME280;66332;50.436;15.378;2023-03-01T11:37:16;99206.53;;;8.10;38.14
77279;BME280;66332;50.436;15.378;2023-03-01T11:53:47;99136.41;;;7.74;38.65
77279;BME280;66332;50.436;15.378;2023-03-01T11:58:43;99156.44;;;8.42;37.95
77279;BME280;66332;50.436;15.378;2023-03-01T12:19:29;99160.09;;;8.68;36.93
77279;BME280;66332;50.436;15.378;2023-03-01T12:29:31;99143.56;;;9.13;36.76
77279;BME280;66332;50.436;15.378;2023-03-01T12:34:42;99131.06;;;9.07;35.88
77279;BME280;66332;50.436;15.378;2023-03-01T12:49:31;99119.09;;;8.20;37.50
77279;BME280;66332;50.436;15.378;2023-03-01T12:54:16;99114.75;;;8.58;37.16
77279;BME280;66332;50.436;15.378;2023-03-01T12:59:28;99125.34;;;8.57;37.52
77279;BME280;66332;50.436;15.378;2023-03-01T13:09:18;99107.75;;;10.02;33.52
77279;BME280;66332;50.436;15.378;2023-03-01T13:19:13;99093.88;;;9.65;37.13
77279;BME280;66332;50.436;15.378;2023-03-01T13:23:56;99095.72;;;9.55;34.47
77279;BME280;66332;50.436;15.378;2023-03-01T13:43:43;99072.56;;;9.51;35.11
77279;BME280;66332;50.436;15.378;2023-03-01T13:48:29;99074.63;;;10.69;32.71
77279;BME280;66332;50.436;15.378;2023-03-01T13:53:16;99074.91;;;11.17;31.21
77279;BME280;66332;50.436;15.378;2023-03-01T13:58:03;99069.66;;;11.66;30.29
77279;BME280;66332;50.436;15.378;2023-03-01T14:07:58;99065.03;;;11.76;30.70
77279;BME280;66332;50.436;15.378;2023-03-01T14:12:59;99059.44;;;11.55;30.60
77279;BME280;66332;50.436;15.378;2023-03-01T14:18:18;99064.19;;;11.18;31.33
77279;BME280;66332;50.436;15.378;2023-03-01T14:23:02;99081.25;;;12.37;56.45
77279;BME280;66332;50.436;15.378;2023-03-01T14:28:02;99062.94;;;12.35;29.78
77279;BME280;66332;50.436;15.378;2023-03-01T14:32:53;99038.50;;;13.12;28.31
77279;BME280;66332;50.436;15.378;2023-03-01T14:37:34;99043.28;;;11.74;30.23
77279;BME280;66332;50.436;15.378;2023-03-01T14:42:16;99024.75;;;9.91;33.81
77279;BME280;66332;50.436;15.378;2023-03-01T14:47:23;99019.47;;;9.83;35.32
77279;BME280;66332;50.436;15.378;2023-03-01T14:52:42;99033.91;;;10.13;33.89
77279;BME280;66332;50.436;15.378;2023-03-01T14:57:28;98983.53;;;9.83;33.80
77279;BME280;66332;50.436;15.378;2023-03-01T15:02:25;99012.81;;;8.73;35.79
77279;BME280;66332;50.436;15.378;2023-03-01T15:07:12;99018.03;;;9.62;34.77
77279;BME280;66332;50.436;15.378;2023-03-01T15:11:56;99016.59;;;10.28;33.79
77279;BME280;66332;50.436;15.378;2023-03-01T15:16:39;99014.16;;;10.86;33.83
77279;BME280;66332;50.436;15.378;2023-03-01T15:21:24;98980.34;;;10.40;33.32
77279;BME280;66332;50.436;15.378;2023-03-01T15:26:28;99002.59;;;10.70;32.95
77279;BME280;66332;50.436;15.378;2023-03-01T15:31:29;99036.78;;;10.62;33.53
77279;BME280;66332;50.436;15.378;2023-03-01T15:36:35;99037.34;;;9.61;37.16
77279;BME280;66332;50.436;15.378;2023-03-01T15:41:37;98997.50;;;9.40;37.23
77279;BME280;66332;50.436;15.378;2023-03-01T15:46:44;99050.41;;;9.71;38.34
77279;BME280;66332;50.436;15.378;2023-03-01T15:51:27;99030.34;;;9.44;38.61
77279;BME280;66332;50.436;15.378;2023-03-01T15:56:09;99062.00;;;8.89;40.26
77279;BME280;66332;50.436;15.378;2023-03-01T16:00:51;99056.16;;;8.40;41.70
77279;BME280;66332;50.436;15.378;2023-03-01T16:05:38;99030.22;;;7.52;45.30
77279;BME280;66332;50.436;15.378;2023-03-01T16:10:19;99048.63;;;6.63;48.63
77279;BME280;66332;50.436;15.378;2023-03-01T16:15:09;99040.75;;;5.92;48.51
77279;BME280;66332;50.436;15.378;2023-03-01T16:19:55;99023.47;;;5.28;51.82
77279;BME280;66332;50.436;15.378;2023-03-01T16:24:46;99053.75;;;4.88;53.41
77279;BME280;66332;50.436;15.378;2023-03-01T16:29:26;99044.94;;;4.45;53.77
77279;BME280;66332;50.436;15.378;2023-03-01T16:34:12;99055.00;;;4.27;54.29
77279;BME280;66332;50.436;15.378;2023-03-01T16:38:59;99056.06;;;3.91;55.89
77279;BME280;66332;50.436;15.378;2023-03-01T16:43:41;99064.06;;;3.77;56.93
77279;BME280;66332;50.436;15.378;2023-03-01T16:48:22;99056.78;;;3.47;55.73
77279;BME280;66332;50.436;15.378;2023-03-01T16:53:03;99057.13;;;3.42;55.59
77279;BME280;66332;50.436;15.378;2023-03-01T16:57:44;99052.69;;;3.20;55.67
77279;BME280;66332;50.436;15.378;2023-03-01T17:02:25;99067.78;;;3.15;57.15
77279;BME280;66332;50.436;15.378;2023-03-01T17:07:06;99061.13;;;2.63;60.60
77279;BME280;66332;50.436;15.378;2023-03-01T17:11:50;99067.06;;;2.65;58.27
77279;BME280;66332;50.436;15.378;2023-03-01T17:16:34;99083.69;;;2.62;59.55
77279;BME280;66332;50.436;15.378;2023-03-01T17:21:16;99081.09;;;2.49;58.42
77279;BME280;66332;50.436;15.378;2023-03-01T17:25:57;99066.81;;;2.31;58.11
77279;BME280;66332;50.436;15.378;2023-03-01T17:30:41;99094.72;;;2.40;57.99
77279;BME280;66332;50.436;15.378;2023-03-01T17:35:23;99086.91;;;2.53;59.37
77279;BME280;66332;50.436;15.378;2023-03-01T17:40:05;99077.47;;;2.52;60.37
77279;BME280;66332;50.436;15.378;2023-03-01T17:44:50;99080.22;;;2.38;56.50
77279;BME280;66332;50.436;15.378;2023-03-01T17:49:31;99069.25;;;2.58;55.89
77279;BME280;66332;50.436;15.378;2023-03-01T17:54:12;99065.16;;;2.30;56.54
77279;BME280;66332;50.436;15.378;2023-03-01T17:58:53;99064.97;;;2.20;57.28
77279;BME280;66332;50.436;15.378;2023-03-01T18:03:34;99047.31;;;2.13;57.73
77279;BME280;66332;50.436;15.378;2023-03-01T18:08:15;99050.41;;;2.30;57.16
77279;BME280;66332;50.436;15.378;2023-03-01T18:12:56;99040.59;;;2.10;57.68
77279;BME280;66332;50.436;15.378;2023-03-01T18:17:37;99044.31;;;2.06;58.34
77279;BME280;66332;50.436;15.378;2023-03-01T18:22:18;99028.66;;;1.95;58.47
77279;BME280;66332;50.436;15.378;2023-03-01T18:26:59;99033.47;;;2.01;58.42
77279;BME280;66332;50.436;15.378;2023-03-01T18:31:40;99038.13;;;1.96;58.83
77279;BME280;66332;50.436;15.378;2023-03-01T18:36:23;99041.13;;;1.77;59.91
77279;BME280;66332;50.436;15.378;2023-03-01T18:41:04;99046.31;;;1.77;59.82
77279;BME280;66332;50.436;15.378;2023-03-01T18:45:45;99042.78;;;1.65;60.17
77279;BME280;66332;50.436;15.378;2023-03-01T18:50:26;99038.63;;;1.63;60.11
77279;BME280;66332;50.436;15.378;2023-03-01T18:55:08;99038.31;;;1.67;60.07
77279;BME280;66332;50.436;15.378;2023-03-01T18:59:49;99041.31;;;1.61;60.42
77279;BME280;66332;50.436;15.378;2023-03-01T19:04:30;99031.97;;;1.46;60.98
77279;BME280;66332;50.436;15.378;2023-03-01T19:09:11;99013.53;;;1.37;60.70
77279;BME280;66332;50.436;15.378;2023-03-01T19:13:53;99045.38;;;1.65;59.46
77279;BME280;66332;50.436;15.378;2023-03-01T19:18:36;99052.41;;;1.63;59.77
77279;BME280;66332;50.436;15.378;2023-03-01T19:23:17;99018.03;;;1.21;60.59
77279;BME280;66332;50.436;15.378;2023-03-01T19:28:04;99018.50;;;1.41;59.19
77279;BME280;66332;50.436;15.378;2023-03-01T19:32:45;99014.22;;;1.27;59.45
77279;BME280;66332;50.436;15.378;2023-03-01T19:37:30;99034.66;;;1.31;58.60
77279;BME280;66332;50.436;15.378;2023-03-01T19:42:58;99028.25;;;1.50;57.36
77279;BME280;66332;50.436;15.378;2023-03-01T19:48:00;99011.09;;;1.22;57.39
77279;BME280;66332;50.436;15.378;2023-03-01T19:52:50;98980.13;;;1.20;55.64
77279;BME280;66332;50.436;15.378;2023-03-01T19:57:47;99019.00;;;1.46;54.73
77279;BME280;66332;50.436;15.378;2023-03-01T20:02:41;99007.53;;;1.37;53.18
77279;BME280;66332;50.436;15.378;2023-03-01T20:07:25;99016.94;;;1.38;53.08
77279;BME280;66332;50.436;15.378;2023-03-01T20:12:07;98984.28;;;1.10;53.40
77279;BME280;66332;50.436;15.378;2023-03-01T20:16:49;99011.59;;;1.01;54.73
77279;BME280;66332;50.436;15.378;2023-03-01T20:21:31;98985.41;;;0.79;54.54
77279;BME280;66332;50.436;15.378;2023-03-01T20:26:30;98990.75;;;0.90;54.65
77279;BME280;66332;50.436;15.378;2023-03-01T20:31:25;99012.78;;;0.83;55.45
77279;BME280;66332;50.436;15.378;2023-03-01T20:36:09;99036.16;;;0.81;55.62
77279;BME280;66332;50.436;15.378;2023-03-01T20:41:09;99031.00;;;0.81;55.52
77279;BME280;66332;50.436;15.378;2023-03-01T20:45:54;99009.81;;;0.62;55.27
77279;BME280;66332;50.436;15.378;2023-03-01T20:50:41;99023.84;;;0.85;53.70
77279;BME280;66332;50.436;15.378;2023-03-01T20:55:22;99022.78;;;1.02;52.43
77279;BME280;66332;50.436;15.378;2023-03-01T21:00:04;99027.13;;;1.01;53.11
77279;BME280;66332;50.436;15.378;2023-03-01T21:04:45;99025.34;;;0.89;53.69
77279;BME280;66332;50.436;15.378;2023-03-01T21:09:26;99027.13;;;0.74;54.09
77279;BME280;66332;50.436;15.378;2023-03-01T21:14:08;99039.31;;;0.45;55.20
77279;BME280;66332;50.436;15.378;2023-03-01T21:18:49;99041.88;;;0.59;56.01
77279;BME280;66332;50.436;15.378;2023-03-01T21:23:31;99048.75;;;0.46;56.59
77279;BME280;66332;50.436;15.378;2023-03-01T21:28:13;99043.41;;;0.35;57.95
77279;BME280;66332;50.436;15.378;2023-03-01T21:32:54;99045.41;;;0.44;55.18
77279;BME280;66332;50.436;15.378;2023-03-01T21:37:35;99054.00;;;0.44;56.69
77279;BME280;66332;50.436;15.378;2023-03-01T21:42:16;99048.00;;;0.44;52.56
77279;BME280;66332;50.436;15.378;2023-03-01T21:46:57;99038.66;;;0.56;51.12
77279;BME280;66332;50.436;15.378;2023-03-01T21:51:38;99042.47;;;0.36;52.70
77279;BME280;66332;50.436;15.378;2023-03-01T21:56:22;99043.41;;;0.20;52.96
77279;BME280;66332;50.436;15.378;2023-03-01T22:01:10;99053.69;;;0.22;54.80
77279;BME280;66332;50.436;15.378;2023-03-01T22:06:00;99046.75;;;0.08;54.44
77279;BME280;66332;50.436;15.378;2023-03-01T22:10:45;99046.03;;;0.06;56.96
77279;BME280;66332;50.436;15.378;2023-03-01T22:15:26;99045.00;;;-0.06;57.92
77279;BME280;66332;50.436;15.378;2023-03-01T22:20:08;99048.78;;;-0.26;55.48
77279;BME280;66332;50.436;15.378;2023-03-01T22:24:49;99045.63;;;-0.31;57.79
77279;BME280;66332;50.436;15.378;2023-03-01T22:29:30;99046.84;;;-0.36;58.18
77279;BME280;66332;50.436;15.378;2023-03-01T22:34:11;99043.41;;;-0.37;55.98
77279;BME280;66332;50.436;15.378;2023-03-01T22:38:54;99034.44;;;-0.31;56.77
77279;BME280;66332;50.436;15.378;2023-03-01T22:43:39;99030.41;;;-0.35;54.00
77279;BME280;66332;50.436;15.378;2023-03-01T22:48:21;99039.34;;;-0.41;54.71
77279;BME280;66332;50.436;15.378;2023-03-01T22:53:02;99040.44;;;-0.45;53.80
